createdAt,value
2023-01-17T00:02:21.271Z,0.50
2023-01-17T00:05:06.819Z,0.63
2023-01-17T00:07:52.354Z,0.63
2023-01-17T00:10:26.950Z,0.67
2023-01-17T00:12:56.907Z,0.50
2023-01-17T00:15:25.526Z,0.60
2023-01-17T00:17:54.222Z,0.90
2023-01-17T00:20:41.421Z,0.63
2023-01-17T00:23:30.004Z,0.63
2023-01-17T00:26:05.062Z,0.70
2023-01-17T00:28:33.495Z,0.60
2023-01-17T00:31:00.292Z,0.70
2023-01-17T00:33:27.282Z,0.60
2023-01-17T00:35:55.860Z,0.50
2023-01-17T00:38:24.132Z,0.80
2023-01-17T00:40:51.356Z,0.50
2023-01-17T00:43:39.792Z,0.70
2023-01-17T00:46:26.000Z,0.77
2023-01-17T00:49:11.779Z,0.60
2023-01-17T00:51:57.224Z,0.40
2023-01-17T00:54:42.652Z,0.70
2023-01-17T00:57:27.985Z,0.50
2023-01-17T01:00:14.855Z,0.57
2023-01-17T01:03:00.258Z,0.50
2023-01-17T01:05:45.667Z,0.63
2023-01-17T01:08:39.195Z,0.70
2023-01-17T01:11:26.698Z,0.83
2023-01-17T01:14:12.273Z,0.60
2023-01-17T01:16:59.398Z,0.50
2023-01-17T01:19:45.239Z,0.67
2023-01-17T01:22:30.884Z,0.77
2023-01-17T01:25:16.180Z,0.50
2023-01-17T01:28:01.807Z,0.60
2023-01-17T01:30:47.282Z,0.70
2023-01-17T01:33:21.316Z,1.20
2023-01-17T01:35:50.935Z,0.50
2023-01-17T01:38:19.309Z,0.60
2023-01-17T01:40:48.697Z,0.50
2023-01-17T01:43:19.566Z,0.50
2023-01-17T01:45:52.427Z,0.67
2023-01-17T01:48:32.754Z,0.50
2023-01-17T01:51:01.787Z,0.60
2023-01-17T01:53:32.627Z,0.50
2023-01-17T01:56:00.601Z,0.63
2023-01-17T01:58:32.945Z,0.60
2023-01-17T02:01:00.961Z,0.63
2023-01-17T02:03:33.140Z,0.93
2023-01-17T02:06:08.556Z,0.43
2023-01-17T02:08:37.089Z,0.50
2023-01-17T02:11:05.250Z,0.50
2023-01-17T02:13:33.070Z,0.60
2023-01-17T02:16:08.797Z,0.50
2023-01-17T02:18:51.706Z,0.50
2023-01-17T02:21:24.452Z,0.40
2023-01-17T02:24:15.525Z,0.40
2023-01-17T02:27:01.045Z,0.60
2023-01-17T02:30:04.690Z,0.80
2023-01-17T02:32:59.469Z,0.60
2023-01-17T02:35:35.167Z,0.50
2023-01-17T02:38:13.767Z,0.57
2023-01-17T02:40:46.101Z,0.50
2023-01-17T02:43:17.232Z,0.50
2023-01-17T02:45:45.810Z,0.47
2023-01-17T02:48:17.153Z,0.57
2023-01-17T02:51:04.434Z,0.50
2023-01-17T02:53:43.103Z,0.60
2023-01-17T02:56:20.678Z,0.63
2023-01-17T02:59:03.810Z,0.70
2023-01-17T03:01:41.545Z,0.80
2023-01-17T03:04:17.756Z,0.57
2023-01-17T03:06:51.699Z,0.80
2023-01-17T03:09:20.911Z,0.73
2023-01-17T03:11:48.664Z,0.50
2023-01-17T03:14:16.509Z,0.50
2023-01-17T03:16:45.020Z,1.20
2023-01-17T03:19:16.033Z,0.50
2023-01-17T03:21:43.957Z,0.80
2023-01-17T03:24:11.691Z,0.53
2023-01-17T03:26:39.492Z,0.50
2023-01-17T03:29:07.257Z,0.50
2023-01-17T03:31:35.025Z,0.70
2023-01-17T03:34:02.840Z,0.50
2023-01-17T03:36:32.334Z,0.60
2023-01-17T03:39:00.253Z,0.53
2023-01-17T03:41:28.113Z,0.57
2023-01-17T03:43:55.938Z,0.70
2023-01-17T03:46:25.412Z,0.50
2023-01-17T03:48:53.639Z,0.50
2023-01-17T03:51:22.004Z,0.50
2023-01-17T03:53:51.889Z,0.50
2023-01-17T03:56:19.935Z,0.80
2023-01-17T03:58:47.850Z,0.70
2023-01-17T04:01:15.786Z,0.50
2023-01-17T04:03:43.612Z,0.60
2023-01-17T04:06:11.446Z,0.60
2023-01-17T04:08:39.280Z,0.60
2023-01-17T04:11:08.834Z,0.60
2023-01-17T04:13:36.622Z,0.77
2023-01-17T04:16:04.820Z,0.57
2023-01-17T04:18:32.687Z,0.60
2023-01-17T04:21:00.449Z,0.60
2023-01-17T04:23:28.337Z,0.53
2023-01-17T04:25:56.140Z,0.70
2023-01-17T04:28:25.371Z,0.80
2023-01-17T04:30:53.241Z,0.53
2023-01-17T04:33:21.562Z,0.80
2023-01-17T04:35:49.399Z,0.67
2023-01-17T04:38:17.183Z,0.60
2023-01-17T04:40:45.105Z,0.90
2023-01-17T04:43:12.888Z,0.50
2023-01-17T04:45:42.102Z,0.60
2023-01-17T04:48:12.492Z,0.63
2023-01-17T04:50:40.835Z,0.50
2023-01-17T04:53:08.598Z,0.50
2023-01-17T04:55:36.485Z,0.70
2023-01-17T04:58:04.317Z,0.77
2023-01-17T05:00:32.255Z,0.50
2023-01-17T05:03:01.426Z,0.80
2023-01-17T05:05:29.356Z,0.70
2023-01-17T05:07:58.226Z,0.60
2023-01-17T05:10:26.950Z,0.50
2023-01-17T05:12:55.813Z,0.53
2023-01-17T05:15:23.925Z,0.53
2023-01-17T05:17:52.658Z,0.80
2023-01-17T05:20:25.295Z,0.50
2023-01-17T05:22:55.661Z,0.50
2023-01-17T05:25:24.017Z,0.80
2023-01-17T05:27:52.263Z,0.83
2023-01-17T05:30:21.094Z,0.60
2023-01-17T05:32:50.281Z,0.80
2023-01-17T05:35:19.595Z,0.60
2023-01-17T05:37:49.091Z,0.90
2023-01-17T05:40:17.325Z,0.60
2023-01-17T05:42:48.718Z,0.67
2023-01-17T05:45:18.089Z,0.60
2023-01-17T05:47:46.828Z,0.70
2023-01-17T05:50:16.480Z,0.57
2023-01-17T05:52:52.335Z,0.60
2023-01-17T05:55:20.876Z,0.50
2023-01-17T05:57:49.208Z,0.70
2023-01-17T06:00:18.178Z,0.50
2023-01-17T06:02:46.776Z,0.80
2023-01-17T06:05:15.552Z,0.80
2023-01-17T06:07:45.314Z,0.73
2023-01-17T06:10:15.404Z,0.70
2023-01-17T06:12:44.219Z,0.60
2023-01-17T06:15:13.187Z,0.60
2023-01-17T06:17:41.092Z,0.50
2023-01-17T06:20:11.418Z,0.83
2023-01-17T06:22:39.293Z,0.80
2023-01-17T06:25:11.833Z,0.90
2023-01-17T06:27:40.933Z,0.63
2023-01-17T06:30:09.982Z,0.50
2023-01-17T06:32:37.777Z,0.60
2023-01-17T06:35:06.032Z,0.80
2023-01-17T06:37:33.837Z,0.67
2023-01-17T06:40:01.642Z,0.80
2023-01-17T06:42:29.421Z,0.90
2023-01-17T06:44:58.600Z,0.80
2023-01-17T06:47:26.496Z,0.90
2023-01-17T06:49:54.344Z,0.73
2023-01-17T06:52:22.168Z,0.80
2023-01-17T06:54:50.093Z,0.80
2023-01-17T06:57:17.914Z,0.70
2023-01-17T06:59:45.787Z,1.03
2023-01-17T07:02:14.919Z,0.70
2023-01-17T07:04:42.788Z,0.90
2023-01-17T07:07:10.674Z,1.00
2023-01-17T07:09:38.431Z,1.00
2023-01-17T07:12:07.065Z,0.93
2023-01-17T07:14:34.845Z,1.07
2023-01-17T07:17:02.701Z,0.70
2023-01-17T07:19:31.842Z,0.87
2023-01-17T07:21:59.610Z,0.90
2023-01-17T07:24:27.426Z,0.80
2023-01-17T07:26:55.275Z,0.90
2023-01-17T07:29:23.180Z,1.00
2023-01-17T07:31:51.021Z,1.03
2023-01-17T07:34:18.881Z,0.60
2023-01-17T07:36:49.606Z,0.80
2023-01-17T07:39:17.424Z,1.07
2023-01-17T07:41:45.236Z,1.07
2023-01-17T07:44:13.736Z,0.70
2023-01-17T07:46:41.607Z,1.20
2023-01-17T07:49:09.691Z,3.50
2023-01-17T07:51:37.579Z,4.77
2023-01-17T07:54:06.991Z,4.70
2023-01-17T07:56:35.487Z,3.73
2023-01-17T07:59:03.280Z,2.17
2023-01-17T08:01:31.291Z,1.70
2023-01-17T08:03:59.195Z,1.60
2023-01-17T08:06:30.051Z,1.40
2023-01-17T08:08:59.397Z,1.10
2023-01-17T08:11:28.727Z,1.37
2023-01-17T08:13:59.224Z,1.73
2023-01-17T08:16:28.564Z,1.50
2023-01-17T08:18:56.959Z,1.37
2023-01-17T08:21:25.221Z,1.37
2023-01-17T08:23:53.531Z,1.63
2023-01-17T08:26:22.661Z,0.90
2023-01-17T08:28:56.727Z,1.23
2023-01-17T08:31:25.291Z,1.20
2023-01-17T08:33:53.149Z,1.37
2023-01-17T08:36:20.957Z,1.40
2023-01-17T08:38:52.550Z,1.73
2023-01-17T08:41:20.851Z,1.30
2023-01-17T08:43:49.299Z,1.30
2023-01-17T08:46:19.135Z,1.10
2023-01-17T08:48:47.295Z,1.20
2023-01-17T08:51:15.328Z,1.47
2023-01-17T08:53:43.143Z,1.03
2023-01-17T08:56:10.920Z,1.43
2023-01-17T08:58:38.730Z,1.87
2023-01-17T09:01:07.258Z,1.43
2023-01-17T09:03:38.355Z,1.80
2023-01-17T09:06:09.859Z,1.30
2023-01-17T09:08:38.241Z,1.03
2023-01-17T09:11:06.634Z,1.00
2023-01-17T09:13:34.467Z,1.00
2023-01-17T09:16:02.965Z,1.10
2023-01-17T09:18:32.145Z,1.20
2023-01-17T09:21:09.811Z,0.90
2023-01-17T09:23:37.735Z,1.00
2023-01-17T09:26:05.790Z,1.00
2023-01-17T09:28:40.729Z,1.00
2023-01-17T09:31:09.528Z,0.90
2023-01-17T09:33:37.644Z,0.93
2023-01-17T09:36:07.599Z,0.60
2023-01-17T09:38:35.460Z,0.70
2023-01-17T09:41:04.555Z,0.60
2023-01-17T09:43:40.841Z,0.60
2023-01-17T09:46:22.227Z,0.87
2023-01-17T09:48:54.501Z,0.50
2023-01-17T09:51:25.017Z,0.57
2023-01-17T09:53:54.857Z,0.60
2023-01-17T09:56:30.032Z,0.70
2023-01-17T09:59:18.788Z,0.50
2023-01-17T10:01:53.896Z,0.80
2023-01-17T10:04:37.278Z,0.70
2023-01-17T10:07:15.994Z,0.80
2023-01-17T10:10:01.488Z,0.60
2023-01-17T10:12:37.960Z,0.80
2023-01-17T10:15:42.599Z,0.60
2023-01-17T10:18:39.748Z,0.90
2023-01-17T10:21:13.486Z,0.80
2023-01-17T10:24:04.641Z,0.70
2023-01-17T10:26:34.621Z,0.60
2023-01-17T10:29:06.062Z,0.50
2023-01-17T10:31:42.083Z,0.70
2023-01-17T10:34:14.240Z,0.73
2023-01-17T10:36:45.777Z,0.90
2023-01-17T10:39:20.190Z,0.70
2023-01-17T10:41:55.104Z,1.10
2023-01-17T10:44:30.097Z,0.60
2023-01-17T10:47:04.713Z,0.83
2023-01-17T10:49:32.577Z,0.90
2023-01-17T10:52:09.575Z,0.93
2023-01-17T10:54:51.286Z,0.70
2023-01-17T10:57:22.150Z,0.83
2023-01-17T10:59:50.597Z,0.67
2023-01-17T11:02:23.924Z,0.60
2023-01-17T11:04:54.396Z,0.50
2023-01-17T11:07:24.817Z,0.80
2023-01-17T11:09:55.558Z,0.60
2023-01-17T11:12:28.816Z,0.60
2023-01-17T11:15:04.643Z,0.60
2023-01-17T11:17:33.808Z,0.60
2023-01-17T11:20:15.480Z,0.70
2023-01-17T11:22:46.916Z,0.60
2023-01-17T11:25:23.267Z,0.73
2023-01-17T11:28:00.457Z,0.67
2023-01-17T11:30:29.427Z,0.77
2023-01-17T11:32:58.601Z,0.70
2023-01-17T11:35:28.957Z,0.60
2023-01-17T11:38:06.792Z,0.70
2023-01-17T11:40:39.533Z,0.90
2023-01-17T11:43:21.602Z,0.60
2023-01-17T11:46:03.275Z,0.60
2023-01-17T11:48:36.271Z,0.67
2023-01-17T11:51:11.785Z,0.60
2023-01-17T11:53:41.522Z,0.80
2023-01-17T11:56:18.234Z,0.70
2023-01-17T11:58:47.124Z,0.70
2023-01-17T12:01:28.140Z,0.60
2023-01-17T12:04:16.921Z,0.67
2023-01-17T12:06:58.447Z,0.80
2023-01-17T12:09:33.602Z,0.90
2023-01-17T12:12:28.388Z,0.70
2023-01-17T12:15:10.043Z,0.80
2023-01-17T12:17:54.459Z,0.73
2023-01-17T12:20:28.914Z,0.57
2023-01-17T12:23:29.431Z,0.77
2023-01-17T12:26:21.714Z,0.80
2023-01-17T12:29:07.758Z,0.83
2023-01-17T12:31:39.643Z,0.73
2023-01-17T12:34:22.210Z,0.70
2023-01-17T12:36:53.934Z,0.70
2023-01-17T12:39:26.031Z,0.73
2023-01-17T12:42:06.770Z,0.60
2023-01-17T12:44:57.894Z,0.87
2023-01-17T12:47:26.748Z,0.60
2023-01-17T12:50:03.243Z,0.70
2023-01-17T12:52:43.375Z,0.80
2023-01-17T12:55:19.143Z,0.80
2023-01-17T12:57:55.181Z,1.10
2023-01-17T13:00:29.601Z,1.00
2023-01-17T13:03:03.850Z,0.87
2023-01-17T13:05:36.816Z,0.70
2023-01-17T13:08:17.900Z,0.80
2023-01-17T13:10:51.116Z,1.00
2023-01-17T13:13:23.851Z,0.70
2023-01-17T13:15:56.027Z,0.83
2023-01-17T13:18:26.918Z,0.83
2023-01-17T13:21:08.729Z,0.80
2023-01-17T13:23:55.732Z,0.70
2023-01-17T13:26:33.117Z,0.80
2023-01-17T13:29:07.952Z,0.90
2023-01-17T13:31:49.447Z,0.87
2023-01-17T13:34:56.282Z,0.97
2023-01-17T13:37:46.406Z,0.90
2023-01-17T13:40:29.835Z,0.70
2023-01-17T13:42:59.955Z,0.80
2023-01-17T13:45:29.737Z,0.70
2023-01-17T13:48:33.013Z,1.00
2023-01-17T13:51:02.571Z,0.80
2023-01-17T13:53:48.099Z,1.00
2023-01-17T13:56:24.945Z,1.00
2023-01-17T13:59:02.637Z,0.70
2023-01-17T14:02:03.030Z,0.90
2023-01-17T14:05:17.435Z,1.03
2023-01-17T14:07:49.530Z,0.87
2023-01-17T14:10:34.368Z,1.27
2023-01-17T14:13:02.871Z,1.00
2023-01-17T14:15:34.378Z,1.10
2023-01-17T14:18:03.549Z,1.10
2023-01-17T14:21:06.853Z,0.90
2023-01-17T14:23:53.173Z,0.90
2023-01-17T14:26:38.634Z,1.17
2023-01-17T14:29:43.825Z,1.17
2023-01-17T14:32:14.104Z,0.90
2023-01-17T14:34:43.617Z,0.90
2023-01-17T14:37:21.308Z,1.00
2023-01-17T14:39:51.818Z,1.00
2023-01-17T14:42:22.425Z,1.07
2023-01-17T14:44:52.669Z,1.67
2023-01-17T14:47:22.321Z,1.03
2023-01-17T14:49:50.100Z,1.20
2023-01-17T14:52:19.414Z,1.10
2023-01-17T14:54:53.206Z,0.97
2023-01-17T14:57:30.639Z,1.00
2023-01-17T15:00:19.980Z,1.40
2023-01-17T15:02:50.640Z,1.00
2023-01-17T15:05:20.256Z,1.07
2023-01-17T15:07:52.954Z,1.07
2023-01-17T15:10:26.000Z,1.20
2023-01-17T15:12:54.078Z,0.90
2023-01-17T15:15:30.159Z,1.00
2023-01-17T15:18:22.311Z,1.00
2023-01-17T15:20:55.730Z,0.90
2023-01-17T15:23:25.553Z,1.33
2023-01-17T15:25:55.154Z,1.03
2023-01-17T15:28:22.947Z,0.80
2023-01-17T15:31:08.641Z,1.20
2023-01-17T15:33:38.966Z,0.83
2023-01-17T15:36:09.622Z,1.40
2023-01-17T15:38:40.160Z,0.80
2023-01-17T15:41:16.653Z,1.47
2023-01-17T15:43:46.184Z,1.03
2023-01-17T15:46:25.970Z,1.23
2023-01-17T15:48:54.028Z,1.03
2023-01-17T15:51:32.818Z,1.20
2023-01-17T15:54:00.909Z,1.30
2023-01-17T15:56:33.278Z,1.10
2023-01-17T15:59:32.488Z,1.27
2023-01-17T16:02:00.381Z,1.10
2023-01-17T16:04:30.447Z,0.93
2023-01-17T16:07:10.673Z,1.10
2023-01-17T16:09:45.188Z,1.20
2023-01-17T16:12:14.398Z,1.10
2023-01-17T16:14:59.485Z,1.03
2023-01-17T16:17:31.720Z,0.93
2023-01-17T16:19:59.941Z,1.10
2023-01-17T16:22:27.822Z,1.30
2023-01-17T16:24:56.991Z,1.00
2023-01-17T16:27:26.310Z,1.10
2023-01-17T16:29:56.343Z,1.30
2023-01-17T16:32:25.370Z,0.90
2023-01-17T16:34:53.355Z,1.10
2023-01-17T16:37:22.104Z,1.40
2023-01-17T16:39:50.030Z,1.03
2023-01-17T16:42:17.791Z,1.10
2023-01-17T16:44:47.002Z,1.30
2023-01-17T16:47:14.813Z,1.30
2023-01-17T16:49:42.597Z,0.97
2023-01-17T16:52:10.430Z,1.20
2023-01-17T16:54:38.160Z,1.03
2023-01-17T16:57:05.957Z,1.00
2023-01-17T16:59:49.673Z,1.30
2023-01-17T17:02:19.540Z,1.63
2023-01-17T17:04:47.459Z,1.67
2023-01-17T17:07:15.346Z,1.00
2023-01-17T17:09:43.258Z,1.63
2023-01-17T17:12:11.157Z,1.30
2023-01-17T17:14:39.327Z,1.03
2023-01-17T17:17:07.577Z,1.50
2023-01-17T17:19:37.113Z,1.60
2023-01-17T17:22:06.592Z,1.70
2023-01-17T17:24:34.485Z,1.40
2023-01-17T17:27:02.349Z,1.87
2023-01-17T17:29:30.223Z,1.63
2023-01-17T17:31:58.039Z,2.50
2023-01-17T17:34:27.567Z,3.17
2023-01-17T17:36:56.754Z,2.50
2023-01-17T17:39:24.558Z,1.70
2023-01-17T17:41:52.398Z,1.97
2023-01-17T17:44:20.250Z,1.60
2023-01-17T17:46:51.422Z,1.50
2023-01-17T17:49:20.319Z,2.80
2023-01-17T17:51:48.308Z,2.10
2023-01-17T17:54:18.351Z,1.80
2023-01-17T17:56:48.173Z,1.50
2023-01-17T17:59:18.441Z,2.30
2023-01-17T18:01:47.022Z,3.53
2023-01-17T18:04:15.256Z,1.70
2023-01-17T18:06:43.361Z,1.40
2023-01-17T18:09:12.096Z,1.30
2023-01-17T18:11:42.923Z,1.27
2023-01-17T18:14:13.519Z,1.70
2023-01-17T18:16:43.754Z,1.63
2023-01-17T18:19:14.578Z,2.17
2023-01-17T18:21:43.392Z,1.30
2023-01-17T18:24:13.063Z,1.60
2023-01-17T18:26:43.963Z,1.10
2023-01-17T18:29:14.655Z,1.63
2023-01-17T18:31:43.490Z,2.13
2023-01-17T18:34:13.699Z,1.87
2023-01-17T18:36:41.999Z,1.80
2023-01-17T18:39:13.058Z,1.53
2023-01-17T18:41:42.789Z,1.70
2023-01-17T18:44:11.793Z,1.50
2023-01-17T18:46:41.861Z,1.27
2023-01-17T18:49:12.143Z,1.60
2023-01-17T18:51:40.254Z,1.53
2023-01-17T18:54:08.780Z,1.20
2023-01-17T18:56:37.035Z,1.50
2023-01-17T18:59:07.670Z,1.83
2023-01-17T19:01:36.532Z,1.33
2023-01-17T19:04:06.897Z,1.43
2023-01-17T19:06:37.630Z,1.50
2023-01-17T19:09:07.121Z,1.37
2023-01-17T19:11:36.127Z,2.70
2023-01-17T19:14:04.255Z,2.77
2023-01-17T19:16:35.683Z,3.20
2023-01-17T19:19:05.628Z,3.13
2023-01-17T19:21:33.729Z,2.27
2023-01-17T19:24:01.872Z,1.90
2023-01-17T19:26:29.939Z,2.00
2023-01-17T19:28:59.927Z,3.07
2023-01-17T19:31:29.300Z,2.63
2023-01-17T19:34:00.151Z,2.70
2023-01-17T19:36:29.811Z,2.17
2023-01-17T19:39:06.161Z,2.30
2023-01-17T19:41:36.183Z,4.83
2023-01-17T19:44:06.226Z,2.67
2023-01-17T19:46:34.985Z,2.37
2023-01-17T19:49:08.847Z,2.50
2023-01-17T19:51:38.004Z,2.33
2023-01-17T19:54:07.752Z,1.87
2023-01-17T19:56:35.697Z,2.00
2023-01-17T19:59:03.608Z,2.03
2023-01-17T20:01:33.195Z,2.23
2023-01-17T20:04:02.423Z,2.20
2023-01-17T20:06:33.178Z,2.30
2023-01-17T20:09:01.107Z,3.20
2023-01-17T20:11:30.722Z,2.27
2023-01-17T20:14:00.275Z,4.33
2023-01-17T20:16:30.494Z,3.57
2023-01-17T20:18:58.962Z,4.30
2023-01-17T20:21:28.043Z,4.03
2023-01-17T20:23:58.435Z,3.77
2023-01-17T20:26:30.986Z,5.00
2023-01-17T20:28:59.002Z,4.33
2023-01-17T20:31:30.040Z,4.80
2023-01-17T20:33:58.109Z,4.47
2023-01-17T20:36:28.821Z,5.20
2023-01-17T20:38:58.199Z,4.07
2023-01-17T20:41:30.055Z,5.03
2023-01-17T20:43:59.774Z,5.93
2023-01-17T20:46:30.975Z,5.40
2023-01-17T20:49:01.031Z,4.90
2023-01-17T20:51:30.799Z,4.80
2023-01-17T20:54:02.618Z,4.77
2023-01-17T20:56:34.483Z,3.80
2023-01-17T20:59:03.589Z,4.50
2023-01-17T21:01:31.985Z,4.10
2023-01-17T21:03:59.789Z,3.80
2023-01-17T21:06:28.052Z,4.30
2023-01-17T21:08:56.165Z,3.90
2023-01-17T21:11:27.445Z,4.70
2023-01-17T21:13:56.207Z,3.93
2023-01-17T21:16:27.883Z,6.00
2023-01-17T21:18:55.929Z,5.90
2023-01-17T21:21:25.939Z,5.17
2023-01-17T21:23:55.261Z,4.50
2023-01-17T21:26:26.530Z,5.10
2023-01-17T21:28:55.128Z,5.23
2023-01-17T21:31:24.852Z,4.50
2023-01-17T21:33:55.106Z,4.83
2023-01-17T21:36:24.991Z,5.40
2023-01-17T21:38:54.681Z,4.53
2023-01-17T21:41:26.517Z,5.03
2023-01-17T21:43:59.055Z,5.00
2023-01-17T21:46:27.856Z,5.30
2023-01-17T21:48:56.733Z,5.00
2023-01-17T21:51:45.375Z,4.47
2023-01-17T21:54:15.100Z,5.13
2023-01-17T21:57:03.084Z,5.30
2023-01-17T21:59:32.155Z,5.17
2023-01-17T22:02:02.375Z,5.13
2023-01-17T22:04:30.337Z,3.73
2023-01-17T22:06:58.531Z,4.87
2023-01-17T22:09:29.367Z,5.53
2023-01-17T22:12:01.527Z,4.80
2023-01-17T22:14:29.691Z,5.63
2023-01-17T22:16:57.787Z,4.00
2023-01-17T22:19:25.804Z,3.97
2023-01-17T22:21:55.231Z,4.17
2023-01-17T22:24:23.358Z,3.70
2023-01-17T22:26:51.267Z,3.70
2023-01-17T22:29:21.551Z,3.57
2023-01-17T22:31:50.002Z,4.10
2023-01-17T22:34:20.814Z,4.37
2023-01-17T22:36:48.777Z,2.77
2023-01-17T22:39:16.864Z,2.20
2023-01-17T22:41:44.795Z,1.93
2023-01-17T22:44:12.621Z,2.00
2023-01-17T22:46:42.444Z,2.70
2023-01-17T22:49:15.670Z,2.40
2023-01-17T22:51:43.563Z,2.50
2023-01-17T22:54:12.271Z,2.67
2023-01-17T22:56:40.211Z,2.33
2023-01-17T23:01:44.681Z,2.00
2023-01-17T23:04:14.468Z,2.37
2023-01-17T23:06:42.828Z,1.97
2023-01-17T23:09:12.648Z,1.90
2023-01-17T23:11:42.542Z,1.80
2023-01-17T23:14:13.693Z,1.93
2023-01-17T23:17:02.465Z,1.90
2023-01-17T23:19:32.369Z,1.80
2023-01-17T23:22:17.341Z,1.83
2023-01-17T23:24:47.818Z,2.13
2023-01-17T23:27:35.475Z,1.73
2023-01-17T23:30:04.518Z,1.57
2023-01-17T23:32:33.729Z,1.70
2023-01-17T23:35:01.667Z,1.80
2023-01-17T23:37:47.410Z,1.90
2023-01-17T23:40:15.889Z,2.23
2023-01-17T23:43:01.055Z,1.90
2023-01-17T23:45:29.308Z,1.80
2023-01-17T23:47:58.510Z,2.13
2023-01-17T23:50:26.387Z,1.70
2023-01-17T23:52:54.336Z,1.93
2023-01-17T23:55:23.022Z,2.03
2023-01-17T23:57:52.937Z,1.80
